createdAt,value
2022-10-08T00:01:58.163Z,6.72
2022-10-08T00:04:00.133Z,6.90
2022-10-08T00:06:03.340Z,7.07
2022-10-08T00:08:08.441Z,6.90
2022-10-08T00:10:09.925Z,6.47
2022-10-08T00:12:12.609Z,6.80
2022-10-08T00:14:14.317Z,6.63
2022-10-08T00:16:19.911Z,6.80
2022-10-08T00:18:21.762Z,7.07
2022-10-08T00:20:23.403Z,6.97
2022-10-08T00:22:25.241Z,6.60
2022-10-08T00:24:27.864Z,6.65
2022-10-08T00:26:41.213Z,7.03
2022-10-08T00:28:50.222Z,7.20
2022-10-08T00:30:51.838Z,7.35
2022-10-08T00:32:59.664Z,7.38
2022-10-08T00:35:01.622Z,7.90
2022-10-08T00:37:05.736Z,7.03
2022-10-08T00:39:20.528Z,6.97
2022-10-08T00:41:25.681Z,7.32
2022-10-08T00:43:44.213Z,7.40
2022-10-08T00:45:47.210Z,7.63
2022-10-08T00:47:49.384Z,7.95
2022-10-08T00:49:55.538Z,8.23
2022-10-08T00:51:57.068Z,8.02
2022-10-08T00:54:01.310Z,7.65
2022-10-08T00:56:03.884Z,7.75
2022-10-08T00:58:12.637Z,7.65
2022-10-08T01:00:19.209Z,7.45
2022-10-08T01:02:20.965Z,7.80
2022-10-08T01:04:22.732Z,8.38
2022-10-08T01:06:28.868Z,7.90
2022-10-08T01:08:46.922Z,8.80
2022-10-08T01:11:04.210Z,8.32
2022-10-08T01:13:27.214Z,7.00
2022-10-08T01:15:36.347Z,8.45
2022-10-08T01:17:59.358Z,9.15
2022-10-08T01:20:42.302Z,8.38
2022-10-08T01:23:03.791Z,8.48
2022-10-08T01:25:33.544Z,7.90
2022-10-08T01:27:50.660Z,7.75
2022-10-08T01:29:53.598Z,7.75
2022-10-08T01:32:15.684Z,8.50
2022-10-08T01:34:31.539Z,7.55
2022-10-08T01:36:38.696Z,8.40
2022-10-08T01:38:46.337Z,8.15
2022-10-08T01:40:52.217Z,8.27
2022-10-08T01:42:55.953Z,8.20
2022-10-08T01:45:05.510Z,8.65
2022-10-08T01:47:11.237Z,8.40
2022-10-08T01:49:18.418Z,8.50
2022-10-08T01:51:33.060Z,8.48
2022-10-08T01:53:40.312Z,7.93
2022-10-08T01:55:45.856Z,8.52
2022-10-08T01:57:48.863Z,9.90
2022-10-08T01:59:59.294Z,7.88
2022-10-08T02:02:13.215Z,8.02
2022-10-08T02:04:33.343Z,8.23
2022-10-08T02:06:39.248Z,8.43
2022-10-08T02:08:40.780Z,8.45
2022-10-08T02:10:43.301Z,8.63
2022-10-08T02:12:45.786Z,8.15
2022-10-08T02:14:51.412Z,8.65
2022-10-08T02:17:15.628Z,8.15
2022-10-08T02:19:29.398Z,8.68
2022-10-08T02:21:32.476Z,8.77
2022-10-08T02:24:12.276Z,8.27
2022-10-08T02:26:22.165Z,8.73
2022-10-08T02:28:41.188Z,8.50
2022-10-08T02:30:55.057Z,8.93
2022-10-08T02:33:10.150Z,8.82
2022-10-08T02:35:18.371Z,8.75
2022-10-08T02:37:27.643Z,8.43
2022-10-08T02:39:34.003Z,8.30
2022-10-08T02:41:46.004Z,8.85
2022-10-08T02:43:50.531Z,9.10
2022-10-08T02:46:17.490Z,9.02
2022-10-08T02:48:30.717Z,9.25
2022-10-08T02:50:35.420Z,9.13
2022-10-08T02:52:43.108Z,8.27
2022-10-08T02:54:48.252Z,8.50
2022-10-08T02:56:59.011Z,8.85
2022-10-08T02:59:04.965Z,8.82
2022-10-08T03:01:24.296Z,9.10
2022-10-08T03:03:31.881Z,8.63
2022-10-08T03:05:34.725Z,9.10
2022-10-08T03:07:36.438Z,9.02
2022-10-08T03:09:42.232Z,8.63
2022-10-08T03:11:44.432Z,8.70
2022-10-08T03:13:48.407Z,9.23
2022-10-08T03:15:54.050Z,9.30
2022-10-08T03:17:57.679Z,9.30
2022-10-08T03:20:03.356Z,9.40
2022-10-08T03:22:07.387Z,9.27
2022-10-08T03:24:11.298Z,9.50
2022-10-08T03:26:12.966Z,9.43
2022-10-08T03:28:16.764Z,9.27
2022-10-08T03:30:18.681Z,8.98
2022-10-08T03:32:23.815Z,8.95
2022-10-08T03:34:25.829Z,8.57
2022-10-08T03:36:28.881Z,9.60
2022-10-08T03:38:30.498Z,8.77
2022-10-08T03:40:35.835Z,9.00
2022-10-08T03:42:40.311Z,9.25
2022-10-08T03:44:42.076Z,9.70
2022-10-08T03:46:43.843Z,9.85
2022-10-08T03:48:49.669Z,9.45
2022-10-08T03:50:57.768Z,8.73
2022-10-08T03:52:59.242Z,8.85
2022-10-08T03:55:08.253Z,9.02
2022-10-08T03:57:09.888Z,8.82
2022-10-08T03:59:11.415Z,9.77
2022-10-08T04:01:19.416Z,8.93
2022-10-08T04:03:21.255Z,8.95
2022-10-08T04:05:22.892Z,8.95
2022-10-08T04:07:26.697Z,9.13
2022-10-08T04:09:28.478Z,9.68
2022-10-08T04:11:33.140Z,9.23
2022-10-08T04:13:36.629Z,9.25
2022-10-08T04:15:41.829Z,9.27
2022-10-08T04:17:43.813Z,8.93
2022-10-08T04:19:45.306Z,9.10
2022-10-08T04:21:46.951Z,9.40
2022-10-08T04:23:51.536Z,8.90
2022-10-08T04:25:54.457Z,9.13
2022-10-08T04:27:56.478Z,9.57
2022-10-08T04:29:58.391Z,10.20
2022-10-08T04:31:59.933Z,9.15
2022-10-08T04:34:01.694Z,9.88
2022-10-08T04:36:12.505Z,10.05
2022-10-08T04:38:14.717Z,9.10
2022-10-08T04:40:16.391Z,9.32
2022-10-08T04:42:18.118Z,9.73
2022-10-08T04:44:20.650Z,9.75
2022-10-08T04:46:22.779Z,10.05
2022-10-08T04:48:24.346Z,10.35
2022-10-08T04:50:25.923Z,9.55
2022-10-08T04:52:28.111Z,10.02
2022-10-08T04:54:29.849Z,9.15
2022-10-08T04:56:34.791Z,8.93
2022-10-08T04:58:37.940Z,9.55
2022-10-08T05:00:40.351Z,9.13
2022-10-08T05:02:42.166Z,9.25
2022-10-08T05:04:43.888Z,9.38
2022-10-08T05:06:45.514Z,9.63
2022-10-08T05:08:48.527Z,9.73
2022-10-08T05:10:50.212Z,9.23
2022-10-08T05:12:52.042Z,9.38
2022-10-08T05:14:53.670Z,9.00
2022-10-08T05:16:55.640Z,9.75
2022-10-08T05:18:58.605Z,9.38
2022-10-08T05:21:11.736Z,9.77
2022-10-08T05:23:16.482Z,9.45
2022-10-08T05:25:18.133Z,9.23
2022-10-08T05:27:19.856Z,9.30
2022-10-08T05:29:22.640Z,9.00
2022-10-08T05:31:25.943Z,9.07
2022-10-08T05:33:27.899Z,9.68
2022-10-08T05:35:29.623Z,9.25
2022-10-08T05:37:31.172Z,9.65
2022-10-08T05:39:32.804Z,9.43
2022-10-08T05:41:36.970Z,9.65
2022-10-08T05:43:39.330Z,8.90
2022-10-08T05:45:49.837Z,10.02
2022-10-08T05:47:51.738Z,9.90
2022-10-08T05:49:53.466Z,10.00
2022-10-08T05:51:59.891Z,9.23
2022-10-08T05:54:04.607Z,8.90
2022-10-08T05:56:07.839Z,9.75
2022-10-08T05:58:09.645Z,9.20
2022-10-08T06:00:12.151Z,9.88
2022-10-08T06:02:14.474Z,9.20
2022-10-08T06:04:18.425Z,10.13
2022-10-08T06:06:23.777Z,9.55
2022-10-08T06:08:25.515Z,10.18
2022-10-08T06:10:27.266Z,10.15
2022-10-08T06:12:28.951Z,8.60
2022-10-08T06:14:30.676Z,8.85
2022-10-08T06:16:32.396Z,9.35
2022-10-08T06:18:39.760Z,8.82
2022-10-08T06:20:41.746Z,9.13
2022-10-08T06:22:44.541Z,8.90
2022-10-08T06:24:46.777Z,8.77
2022-10-08T06:26:48.450Z,8.07
2022-10-08T06:28:50.273Z,8.20
2022-10-08T06:30:52.104Z,8.48
2022-10-08T06:32:56.388Z,8.05
2022-10-08T06:34:58.523Z,8.43
2022-10-08T06:37:03.205Z,8.63
2022-10-08T06:39:15.474Z,8.65
2022-10-08T06:41:17.238Z,8.45
2022-10-08T06:43:20.132Z,8.75
2022-10-08T06:45:21.933Z,8.15
2022-10-08T06:47:23.541Z,8.25
2022-10-08T06:49:26.748Z,8.32
2022-10-08T06:51:35.428Z,7.85
2022-10-08T06:53:37.110Z,8.90
2022-10-08T06:55:38.956Z,7.43
2022-10-08T06:57:40.610Z,8.27
2022-10-08T06:59:42.206Z,8.18
2022-10-08T07:01:44.286Z,8.93
2022-10-08T07:03:52.232Z,8.35
2022-10-08T07:05:53.913Z,7.88
2022-10-08T07:07:55.661Z,7.93
2022-10-08T07:09:57.328Z,7.78
2022-10-08T07:12:01.826Z,7.18
2022-10-08T07:14:06.734Z,8.00
2022-10-08T07:16:19.587Z,8.43
2022-10-08T07:18:22.002Z,7.57
2022-10-08T07:20:26.434Z,7.55
2022-10-08T07:22:28.020Z,8.23
2022-10-08T07:24:29.658Z,7.80
2022-10-08T07:26:34.400Z,8.05
2022-10-08T07:28:39.595Z,7.65
2022-10-08T07:30:41.256Z,7.70
2022-10-08T07:32:42.682Z,7.63
2022-10-08T07:34:45.985Z,7.82
2022-10-08T07:36:50.650Z,7.63
2022-10-08T07:38:57.760Z,8.13
2022-10-08T07:40:59.424Z,7.70
2022-10-08T07:43:02.112Z,8.40
2022-10-08T07:45:13.129Z,7.60
2022-10-08T07:47:14.655Z,7.43
2022-10-08T07:49:18.255Z,7.00
2022-10-08T07:51:20.916Z,7.28
2022-10-08T07:53:22.455Z,7.60
2022-10-08T07:55:24.107Z,6.63
2022-10-08T07:57:25.689Z,7.00
2022-10-08T07:59:28.341Z,6.57
2022-10-08T08:01:31.716Z,6.65
2022-10-08T08:03:33.501Z,7.18
2022-10-08T08:05:45.964Z,6.13
2022-10-08T08:07:53.046Z,7.00
2022-10-08T08:09:57.740Z,6.50
2022-10-08T08:11:59.540Z,6.32
2022-10-08T08:14:01.820Z,6.63
2022-10-08T08:16:15.280Z,6.25
2022-10-08T08:18:17.040Z,5.95
2022-10-08T08:20:18.834Z,5.30
2022-10-08T08:22:21.026Z,5.78
2022-10-08T08:24:24.014Z,6.57
2022-10-08T08:26:31.730Z,5.30
2022-10-08T08:28:34.007Z,5.50
2022-10-08T08:30:36.439Z,4.95
2022-10-08T08:32:39.966Z,5.57
2022-10-08T08:35:41.372Z,5.10
2022-10-08T08:37:50.247Z,4.95
2022-10-08T08:39:54.338Z,4.60
2022-10-08T08:42:30.534Z,4.53
2022-10-08T08:44:39.414Z,4.20
2022-10-08T08:46:46.668Z,4.15
2022-10-08T08:49:00.151Z,4.35
2022-10-08T08:51:04.290Z,3.83
2022-10-08T08:53:13.253Z,4.28
2022-10-08T08:55:20.557Z,3.92
2022-10-08T08:57:41.644Z,3.67
2022-10-08T08:59:46.714Z,3.33
2022-10-08T09:01:49.571Z,3.35
2022-10-08T09:03:59.447Z,3.88
2022-10-08T09:06:09.884Z,3.40
2022-10-08T09:08:21.246Z,3.38
2022-10-08T09:10:34.040Z,3.35
2022-10-08T09:12:46.321Z,3.47
2022-10-08T09:14:56.478Z,4.00
2022-10-08T09:17:02.636Z,3.70
2022-10-08T09:19:04.481Z,4.13
2022-10-08T09:21:06.039Z,3.53
2022-10-08T09:23:20.545Z,3.58
2022-10-08T09:25:25.080Z,3.40
2022-10-08T09:28:04.806Z,3.78
2022-10-08T09:30:32.511Z,3.72
2022-10-08T09:32:34.609Z,3.42
2022-10-08T09:34:36.920Z,3.70
2022-10-08T09:36:50.812Z,3.10
2022-10-08T09:38:59.338Z,3.00
2022-10-08T09:41:00.796Z,2.95
2022-10-08T09:43:16.820Z,2.80
2022-10-08T09:45:41.549Z,2.63
2022-10-08T09:47:43.287Z,2.58
2022-10-08T09:49:50.001Z,2.65
2022-10-08T09:51:53.146Z,2.50
2022-10-08T09:53:59.208Z,2.47
2022-10-08T09:56:07.010Z,2.20
2022-10-08T09:58:17.899Z,2.30
2022-10-08T10:00:31.762Z,2.50
2022-10-08T10:02:40.386Z,2.65
2022-10-08T10:04:42.343Z,2.30
2022-10-08T10:06:48.241Z,2.05
2022-10-08T10:08:55.919Z,2.00
2022-10-08T10:10:57.946Z,1.70
2022-10-08T10:13:27.897Z,1.83
2022-10-08T10:15:38.560Z,1.88
2022-10-08T10:17:59.608Z,1.90
2022-10-08T10:20:06.242Z,1.77
2022-10-08T10:22:14.204Z,1.45
2022-10-08T10:24:33.129Z,1.50
2022-10-08T10:26:39.634Z,1.50
2022-10-08T10:28:58.069Z,1.50
2022-10-08T10:31:14.243Z,1.63
2022-10-08T10:33:30.069Z,1.80
2022-10-08T10:35:32.920Z,1.70
2022-10-08T10:37:41.852Z,1.77
2022-10-08T10:39:51.932Z,1.20
2022-10-08T10:42:35.811Z,1.60
2022-10-08T10:44:53.076Z,1.30
2022-10-08T10:47:00.409Z,1.20
2022-10-08T10:49:02.696Z,1.42
2022-10-08T10:51:38.486Z,1.58
2022-10-08T10:54:00.094Z,1.25
2022-10-08T10:56:17.105Z,1.20
2022-10-08T10:58:32.812Z,1.40
2022-10-08T11:01:03.642Z,1.40
2022-10-08T11:03:18.659Z,1.20
2022-10-08T11:05:23.982Z,1.38
2022-10-08T11:07:56.570Z,1.30
2022-10-08T11:10:32.579Z,1.40
2022-10-08T11:12:44.483Z,1.38
2022-10-08T11:15:21.251Z,0.80
2022-10-08T11:17:32.253Z,1.27
2022-10-08T11:19:41.533Z,1.05
2022-10-08T11:21:59.261Z,1.10
2022-10-08T11:24:34.935Z,1.00
2022-10-08T11:26:48.443Z,1.00
2022-10-08T11:29:20.830Z,1.05
2022-10-08T11:31:44.506Z,1.10
2022-10-08T11:33:47.313Z,1.15
2022-10-08T11:36:13.688Z,1.85
2022-10-08T11:38:44.618Z,2.35
2022-10-08T11:40:56.286Z,1.60
2022-10-08T11:43:35.187Z,1.58
2022-10-08T11:45:49.049Z,1.50
2022-10-08T11:47:53.500Z,1.40
2022-10-08T11:49:55.764Z,1.40
2022-10-08T11:52:18.942Z,1.52
2022-10-08T11:54:25.238Z,1.35
2022-10-08T11:56:27.016Z,1.45
2022-10-08T11:58:33.279Z,1.50
2022-10-08T12:00:41.398Z,1.33
2022-10-08T12:02:45.649Z,1.30
2022-10-08T12:04:48.969Z,1.10
2022-10-08T12:07:03.337Z,1.30
2022-10-08T12:09:07.121Z,1.30
2022-10-08T12:11:40.230Z,1.80
2022-10-08T12:13:41.883Z,1.58
2022-10-08T12:15:44.399Z,1.48
2022-10-08T12:18:25.791Z,1.60
2022-10-08T12:20:34.403Z,1.33
2022-10-08T12:22:36.113Z,1.10
2022-10-08T12:24:37.584Z,1.20
2022-10-08T12:27:20.917Z,1.20
2022-10-08T12:30:00.143Z,1.20
2022-10-08T12:32:02.156Z,1.20
2022-10-08T12:34:20.131Z,1.20
2022-10-08T12:36:38.932Z,1.23
2022-10-08T12:38:57.267Z,1.10
2022-10-08T12:41:19.316Z,1.10
2022-10-08T12:43:40.338Z,1.38
2022-10-08T12:46:05.211Z,1.42
2022-10-08T12:48:34.995Z,1.30
2022-10-08T12:51:00.216Z,1.38
2022-10-08T12:53:04.560Z,1.23
2022-10-08T12:55:06.909Z,1.20
2022-10-08T12:57:11.248Z,1.25
2022-10-08T12:59:14.130Z,1.10
2022-10-08T13:01:20.530Z,1.10
2022-10-08T13:03:22.531Z,1.10
2022-10-08T13:05:30.922Z,1.05
2022-10-08T13:07:35.240Z,1.20
2022-10-08T13:09:42.196Z,1.30
2022-10-08T13:11:44.928Z,1.20
2022-10-08T13:13:50.178Z,0.90
2022-10-08T13:15:59.221Z,1.33
2022-10-08T13:18:13.073Z,0.90
2022-10-08T13:20:19.569Z,1.02
2022-10-08T13:22:25.452Z,1.02
2022-10-08T13:24:30.986Z,0.98
2022-10-08T13:26:40.343Z,1.13
2022-10-08T13:28:59.798Z,1.20
2022-10-08T13:31:22.075Z,1.10
2022-10-08T13:33:27.605Z,1.70
2022-10-08T13:35:29.564Z,1.42
2022-10-08T13:37:39.257Z,1.35
2022-10-08T13:39:51.167Z,1.35
2022-10-08T13:41:56.314Z,1.73
2022-10-08T13:43:59.485Z,1.50
2022-10-08T13:46:01.318Z,1.35
2022-10-08T13:48:03.254Z,0.98
2022-10-08T13:50:05.245Z,1.20
2022-10-08T13:52:16.983Z,1.75
2022-10-08T13:54:25.717Z,1.60
2022-10-08T13:56:27.492Z,1.10
2022-10-08T13:58:29.038Z,1.55
2022-10-08T14:00:33.681Z,1.20
2022-10-08T14:02:35.422Z,1.38
2022-10-08T14:04:39.084Z,1.20
2022-10-08T14:06:44.433Z,1.15
2022-10-08T14:08:50.711Z,1.00
2022-10-08T14:10:57.588Z,1.23
2022-10-08T14:12:59.339Z,0.90
2022-10-08T14:15:01.815Z,1.00
2022-10-08T14:17:07.084Z,1.00
2022-10-08T14:19:12.398Z,1.35
2022-10-08T14:21:16.859Z,1.10
2022-10-08T14:23:21.060Z,1.10
2022-10-08T14:25:25.804Z,1.00
2022-10-08T14:27:30.901Z,1.08
2022-10-08T14:29:34.699Z,1.02
2022-10-08T14:31:39.450Z,1.00
2022-10-08T14:33:41.615Z,0.80
2022-10-08T14:35:43.248Z,0.90
2022-10-08T14:37:45.339Z,0.80
2022-10-08T14:39:47.634Z,1.00
2022-10-08T14:41:49.418Z,1.08
2022-10-08T14:43:51.229Z,1.10
2022-10-08T14:45:53.182Z,1.00
2022-10-08T14:47:57.625Z,1.10
2022-10-08T14:49:59.429Z,1.17
2022-10-08T14:52:01.133Z,1.20
2022-10-08T14:54:02.766Z,1.27
2022-10-08T14:56:12.895Z,1.60
2022-10-08T14:58:15.847Z,1.30
2022-10-08T15:00:17.584Z,1.70
2022-10-08T15:02:19.768Z,1.58
2022-10-08T15:04:21.591Z,2.40
2022-10-08T15:06:23.750Z,2.35
2022-10-08T15:08:25.339Z,1.90
2022-10-08T15:10:27.205Z,2.30
2022-10-08T15:12:28.826Z,1.80
2022-10-08T15:14:34.322Z,1.73
2022-10-08T15:16:39.649Z,1.45
2022-10-08T15:18:42.118Z,0.98
2022-10-08T15:20:43.874Z,1.63
2022-10-08T15:22:45.838Z,1.20
2022-10-08T15:24:47.752Z,1.10
2022-10-08T15:26:49.381Z,1.17
2022-10-08T15:28:53.602Z,1.15
2022-10-08T15:31:05.682Z,1.38
2022-10-08T15:33:10.767Z,1.13
2022-10-08T15:35:13.080Z,1.38
2022-10-08T15:37:14.792Z,1.30
2022-10-08T15:39:18.297Z,1.17
2022-10-08T15:41:20.177Z,1.38
2022-10-08T15:43:31.574Z,1.17
2022-10-08T15:45:42.013Z,1.10
2022-10-08T15:47:44.078Z,1.40
2022-10-08T15:49:46.268Z,1.17
2022-10-08T15:51:47.909Z,1.20
2022-10-08T15:53:49.755Z,1.20
2022-10-08T15:55:58.255Z,1.42
2022-10-08T15:58:00.136Z,1.50
2022-10-08T16:00:01.660Z,1.50
2022-10-08T16:02:16.970Z,1.40
2022-10-08T16:04:22.435Z,1.50
2022-10-08T16:06:26.893Z,1.40
2022-10-08T16:08:36.854Z,1.40
2022-10-08T16:10:38.593Z,1.27
2022-10-08T16:12:40.288Z,1.40
2022-10-08T16:14:41.976Z,1.52
2022-10-08T16:16:44.201Z,1.60
2022-10-08T16:18:50.811Z,1.45
2022-10-08T16:20:52.840Z,1.50
2022-10-08T16:22:54.590Z,1.70
2022-10-08T16:24:56.237Z,1.67
2022-10-08T16:26:59.421Z,1.58
2022-10-08T16:29:04.775Z,1.70
2022-10-08T16:31:08.373Z,1.90
2022-10-08T16:33:09.845Z,1.80
2022-10-08T16:35:11.600Z,1.80
2022-10-08T16:37:13.267Z,1.95
2022-10-08T16:39:18.181Z,1.63
2022-10-08T16:41:22.785Z,1.50
2022-10-08T16:43:24.484Z,1.67
2022-10-08T16:45:26.259Z,1.75
2022-10-08T16:47:28.078Z,2.42
2022-10-08T16:49:29.753Z,2.95
2022-10-08T16:51:37.091Z,4.80
2022-10-08T16:53:38.680Z,6.10
2022-10-08T16:55:41.612Z,7.60
2022-10-08T16:57:43.542Z,7.80
2022-10-08T16:59:45.203Z,7.85
2022-10-08T17:01:54.867Z,6.50
2022-10-08T17:03:59.237Z,5.80
2022-10-08T17:06:01.796Z,4.88
2022-10-08T17:08:03.486Z,4.15
2022-10-08T17:10:05.979Z,3.90
2022-10-08T17:12:07.682Z,3.20
2022-10-08T17:14:10.415Z,3.30
2022-10-08T17:16:13.056Z,3.15
2022-10-08T17:18:14.844Z,3.00
2022-10-08T17:20:16.724Z,3.63
2022-10-08T17:22:18.282Z,3.22
2022-10-08T17:24:20.065Z,3.30
2022-10-08T17:26:23.255Z,3.42
2022-10-08T17:28:30.305Z,3.53
2022-10-08T17:30:32.301Z,3.17
2022-10-08T17:32:34.022Z,3.13
2022-10-08T17:34:35.732Z,2.85
2022-10-08T17:36:40.410Z,2.78
2022-10-08T17:38:43.686Z,3.17
2022-10-08T17:40:45.453Z,3.78
2022-10-08T17:42:47.177Z,4.75
2022-10-08T17:44:49.101Z,5.45
2022-10-08T17:46:52.099Z,5.88
2022-10-08T17:48:55.009Z,6.25
2022-10-08T17:50:56.528Z,6.15
2022-10-08T17:52:58.173Z,6.20
2022-10-08T17:54:59.991Z,6.22
2022-10-08T17:57:01.712Z,6.65
2022-10-08T17:59:04.181Z,6.22
2022-10-08T18:01:09.009Z,5.88
2022-10-08T18:03:10.609Z,6.40
2022-10-08T18:05:12.458Z,6.28
2022-10-08T18:07:14.796Z,5.75
2022-10-08T18:09:19.451Z,4.90
2022-10-08T18:11:21.923Z,4.95
2022-10-08T18:13:23.831Z,3.95
2022-10-08T18:15:36.254Z,3.97
2022-10-08T18:17:37.901Z,3.20
2022-10-08T18:19:39.515Z,3.38
2022-10-08T18:21:41.267Z,3.10
2022-10-08T18:23:43.596Z,2.70
2022-10-08T18:25:45.249Z,3.10
2022-10-08T18:27:47.911Z,2.97
2022-10-08T18:29:49.503Z,3.50
2022-10-08T18:31:51.606Z,2.47
2022-10-08T18:33:59.269Z,2.88
2022-10-08T18:36:15.944Z,2.63
2022-10-08T18:38:17.985Z,3.17
2022-10-08T18:40:19.636Z,3.05
2022-10-08T18:42:21.495Z,4.28
2022-10-08T18:44:25.180Z,3.72
2022-10-08T18:46:28.406Z,3.42
2022-10-08T18:48:34.544Z,3.22
2022-10-08T18:50:36.159Z,3.42
2022-10-08T18:52:44.021Z,3.50
2022-10-08T18:54:45.672Z,3.20
2022-10-08T18:56:47.600Z,3.25
2022-10-08T18:58:53.921Z,2.88
2022-10-08T19:00:56.728Z,2.60
2022-10-08T19:02:58.612Z,2.78
2022-10-08T19:05:01.085Z,2.97
2022-10-08T19:07:02.761Z,4.20
2022-10-08T19:09:12.227Z,4.75
2022-10-08T19:11:23.192Z,5.90
2022-10-08T19:13:24.774Z,7.20
2022-10-08T19:15:26.514Z,9.35
2022-10-08T19:17:28.090Z,9.80
2022-10-08T19:19:31.663Z,9.88
2022-10-08T19:21:38.646Z,9.25
2022-10-08T19:23:40.725Z,8.20
2022-10-08T19:25:42.348Z,6.57
2022-10-08T19:27:43.959Z,6.90
2022-10-08T19:29:45.579Z,6.57
2022-10-08T19:31:49.851Z,6.70
2022-10-08T19:33:56.851Z,6.68
2022-10-08T19:36:01.488Z,6.38
2022-10-08T19:38:03.292Z,5.93
2022-10-08T19:40:05.585Z,5.65
2022-10-08T19:42:07.259Z,4.70
2022-10-08T19:44:09.450Z,4.68
2022-10-08T19:46:11.193Z,4.40
2022-10-08T19:48:13.453Z,5.13
2022-10-08T19:50:15.320Z,4.97
2022-10-08T19:52:16.849Z,4.80
2022-10-08T19:54:18.539Z,5.22
2022-10-08T19:56:21.795Z,5.22
2022-10-08T19:58:23.606Z,4.88
2022-10-08T20:00:25.358Z,4.90
2022-10-08T20:02:26.936Z,5.35
2022-10-08T20:04:28.446Z,5.43
2022-10-08T20:06:32.125Z,6.40
2022-10-08T20:08:34.990Z,6.82
2022-10-08T20:10:39.918Z,7.60
2022-10-08T20:12:41.849Z,7.28
2022-10-08T20:14:43.549Z,8.43
2022-10-08T20:16:45.494Z,8.82
2022-10-08T20:18:55.666Z,8.85
2022-10-08T20:21:09.485Z,8.63
2022-10-08T20:23:11.949Z,7.10
2022-10-08T20:25:13.700Z,6.53
2022-10-08T20:27:15.388Z,6.10
2022-10-08T20:29:20.115Z,4.88
2022-10-08T20:31:25.612Z,4.85
2022-10-08T20:33:27.198Z,3.65
2022-10-08T20:35:28.977Z,4.22
2022-10-08T20:37:31.437Z,3.78
2022-10-08T20:39:33.425Z,4.00
2022-10-08T20:41:35.034Z,3.30
2022-10-08T20:43:38.635Z,3.63
2022-10-08T20:45:40.359Z,3.28
2022-10-08T20:47:41.851Z,2.90
2022-10-08T20:49:43.388Z,3.15
2022-10-08T20:51:45.159Z,3.13
2022-10-08T20:53:48.809Z,2.90
2022-10-08T20:55:50.574Z,3.88
2022-10-08T20:57:52.022Z,4.20
2022-10-08T20:59:56.896Z,4.57
2022-10-08T21:01:58.682Z,5.50
2022-10-08T21:04:03.150Z,6.15
2022-10-08T21:06:08.218Z,6.68
2022-10-08T21:08:09.697Z,7.30
2022-10-08T21:10:11.704Z,6.72
2022-10-08T21:12:13.402Z,7.05
2022-10-08T21:14:18.755Z,7.00
2022-10-08T21:16:29.956Z,6.55
2022-10-08T21:18:32.107Z,4.97
2022-10-08T21:20:37.460Z,4.70
2022-10-08T21:22:39.053Z,3.58
2022-10-08T21:24:40.918Z,3.40
2022-10-08T21:26:42.981Z,3.60
2022-10-08T21:28:46.154Z,3.33
2022-10-08T21:30:53.387Z,3.50
2022-10-08T21:32:55.061Z,4.95
2022-10-08T21:34:56.794Z,5.55
2022-10-08T21:36:58.355Z,9.75
2022-10-08T21:39:01.160Z,28.20
2022-10-08T21:41:12.110Z,34.05
2022-10-08T21:43:13.825Z,25.98
2022-10-08T21:45:22.856Z,16.60
2022-10-08T21:47:24.566Z,10.75
2022-10-08T21:49:26.472Z,6.90
2022-10-08T21:51:30.245Z,5.57
2022-10-08T21:53:33.262Z,4.38
2022-10-08T21:55:34.949Z,3.95
2022-10-08T21:57:36.729Z,4.05
2022-10-08T21:59:38.358Z,3.70
2022-10-08T22:01:46.302Z,3.53
2022-10-08T22:03:48.049Z,3.83
2022-10-08T22:05:54.755Z,3.80
2022-10-08T22:07:56.291Z,3.50
2022-10-08T22:09:57.873Z,4.07
2022-10-08T22:12:00.208Z,4.30
2022-10-08T22:14:01.736Z,3.83
2022-10-08T22:16:05.130Z,4.30
2022-10-08T22:18:06.894Z,5.30
2022-10-08T22:20:08.892Z,5.05
2022-10-08T22:22:10.509Z,5.13
2022-10-08T22:24:12.484Z,5.70
2022-10-08T22:26:22.259Z,6.13
2022-10-08T22:28:25.257Z,6.95
2022-10-08T22:30:27.299Z,6.38
2022-10-08T22:32:29.071Z,6.10
2022-10-08T22:34:30.594Z,5.35
2022-10-08T22:36:34.359Z,4.88
2022-10-08T22:38:38.184Z,4.15
2022-10-08T22:40:40.001Z,4.10
2022-10-08T22:42:41.583Z,3.53
2022-10-08T22:44:43.118Z,4.30
2022-10-08T22:46:44.939Z,4.10
2022-10-08T22:48:47.970Z,4.10
2022-10-08T22:50:49.683Z,4.15
2022-10-08T22:52:51.343Z,4.40
2022-10-08T22:54:53.051Z,4.60
2022-10-08T22:56:54.497Z,4.80
2022-10-08T22:58:56.161Z,4.10
2022-10-08T23:01:09.570Z,3.63
2022-10-08T23:03:11.278Z,3.40
2022-10-08T23:05:12.907Z,3.92
2022-10-08T23:07:14.491Z,3.53
2022-10-08T23:09:16.392Z,4.10
2022-10-08T23:11:18.210Z,4.00
2022-10-08T23:13:19.940Z,4.18
2022-10-08T23:15:21.582Z,4.32
2022-10-08T23:17:23.082Z,4.72
2022-10-08T23:19:24.675Z,4.57
2022-10-08T23:21:31.556Z,4.30
2022-10-08T23:23:34.139Z,3.90
2022-10-08T23:25:35.942Z,4.05
2022-10-08T23:27:37.503Z,4.03
2022-10-08T23:29:39.045Z,3.97
2022-10-08T23:31:41.051Z,3.67
2022-10-08T23:33:48.355Z,4.03
2022-10-08T23:35:56.804Z,4.07
2022-10-08T23:37:58.379Z,4.40
2022-10-08T23:40:00.316Z,4.25
2022-10-08T23:42:01.994Z,4.50
2022-10-08T23:44:03.963Z,5.03
2022-10-08T23:46:07.497Z,4.07
2022-10-08T23:48:08.971Z,4.28
2022-10-08T23:50:10.827Z,4.00
2022-10-08T23:52:12.428Z,4.07
2022-10-08T23:54:13.946Z,4.00
2022-10-08T23:56:15.522Z,3.88
2022-10-08T23:58:17.976Z,3.47
